Time;durP1;ratioP1;P1;durP2;ratioP2;P2;SDS_P1;SDS_P2;PMS_P1;PMS_P2;Temp;Humidity;BMP_temperature;BMP_pressure;BME280_temperature;BME280_humidity;BME280_pressure;Samples;Min_cycle;Max_cycle;Signal;HPM_P1;HPM_P2
2022/08/04 00:02:42;;;;;;;3.85;2.53;;;;;;;20.75;nan;101163.34;5034340;28;20088;-60
2022/08/04 00:05:10;;;;;;;;;;;;;;;20.70;nan;101160.13;5033258;28;20060;-59
2022/08/04 00:07:56;;;;;;;5.82;2.60;;;;;;;20.66;nan;101164.00;5048935;28;19913;-59
2022/08/04 00:10:21;;;;;;;5.93;2.70;;;;;;;20.66;nan;101158.63;5033397;28;20030;-59
2022/08/04 00:12:50;;;;;;;6.50;2.60;;;;;;;20.37;nan;101117.00;5048457;28;20496;-61
2022/08/04 00:15:16;;;;;;;4.78;2.58;;;;;;;20.26;nan;101095.50;5032292;28;20029;-60
2022/08/04 00:17:50;;;;;;;3.20;2.78;;;;;;;20.58;nan;101147.59;5033951;28;20028;-59
2022/08/04 00:20:18;;;;;;;5.03;2.95;;;;;;;20.58;nan;101147.59;5032982;28;20052;-61
2022/08/04 00:22:45;;;;;;;3.55;2.25;;;;;;;20.26;nan;101090.16;5034566;28;20356;-59
2022/08/04 00:25:10;;;;;;;5.82;2.75;;;;;;;20.52;nan;101146.19;5034342;28;20111;-60
2022/08/04 00:27:36;;;;;;;3.22;2.75;;;;;;;20.55;nan;101137.97;5034703;28;20491;-60
2022/08/04 00:30:02;;;;;;;5.35;2.92;;;;;;;20.20;nan;101083.34;5033102;28;20033;-61
2022/08/04 00:32:28;;;;;;;5.00;2.72;;;;;;;20.53;nan;101141.72;5033824;28;20054;-60
2022/08/04 00:34:54;;;;;;;5.03;3.15;;;;;;;20.40;nan;101119.47;5034116;28;20041;-60
2022/08/04 00:37:23;;;;;;;4.20;2.80;;;;;;;20.52;nan;101140.84;5034126;28;20113;-60
2022/08/04 00:39:48;;;;;;;5.40;2.50;;;;;;;20.14;nan;101078.41;5032955;28;20033;-60
2022/08/04 00:42:44;;;;;;;6.03;3.35;;;;;;;20.50;nan;101144.59;5034049;28;20056;-61
2022/08/04 00:45:27;;;;;;;5.53;2.60;;;;;;;20.47;nan;101137.63;5032966;28;20030;-60
2022/08/04 00:48:11;;;;;;;4.10;2.47;;;;;;;20.46;nan;101135.91;5032582;28;20108;-60
2022/08/04 00:51:07;;;;;;;5.72;3.00;;;;;;;20.45;nan;101136.03;5028329;28;20032;-60
2022/08/04 00:53:57;;;;;;;4.05;2.70;;;;;;;20.44;nan;101153.03;5047151;28;20045;-60
2022/08/04 00:57:02;;;;;;;6.15;3.38;;;;;;;20.44;nan;101137.00;5032504;28;20039;-60
2022/08/04 00:59:27;;;;;;;7.72;3.05;;;;;;;20.44;nan;101139.66;5033897;28;20076;-60
2022/08/04 01:02:03;;;;;;;4.83;3.00;;;;;;;20.40;nan;101119.47;5032806;28;20029;-60
2022/08/04 01:04:44;;;;;;;7.13;2.67;;;;;;;20.43;nan;101129.94;5032360;28;20279;-60
2022/08/04 01:07:31;;;;;;;4.65;2.92;;;;;;;20.50;nan;101136.56;5033880;28;20088;-58
2022/08/04 01:10:50;;;;;;;4.32;3.00;;;;;;;20.51;nan;101131.13;5033167;28;20104;-59
2022/08/04 01:13:28;;;;;;;4.43;3.63;;;;;;;20.48;nan;101131.34;4975354;28;20045;-60
2022/08/04 01:16:01;;;;;;;5.97;4.32;;;;;;;20.46;nan;101138.59;4991802;28;20121;-61
2022/08/04 01:18:33;;;;;;;5.97;4.00;;;;;;;20.45;nan;101139.56;5020677;28;20037;-60
2022/08/04 01:21:16;;;;;;;7.35;4.38;;;;;;;20.43;nan;101121.94;5028553;28;20542;-60
2022/08/04 01:24:15;;;;;;;4.75;4.25;;;;;;;20.44;nan;101145.00;5014307;28;20484;-60
2022/08/04 01:26:59;;;;;;;7.75;5.35;;;;;;;20.11;nan;101086.66;5020112;28;20092;-60
2022/08/04 01:29:33;;;;;;;7.47;4.72;;;;;;;20.10;nan;101079.59;5048492;28;20037;-60
2022/08/04 01:32:11;;;;;;;5.93;5.07;;;;;;;20.36;nan;101121.47;5033020;28;20103;-59
2022/08/04 01:34:50;;;;;;;5.85;4.30;;;;;;;20.31;nan;101120.94;5033190;28;20449;-60
2022/08/04 01:37:45;;;;;;;8.32;4.45;;;;;;;20.27;nan;101107.88;5032763;28;20040;-60
2022/08/04 01:40:13;;;;;;;8.90;4.45;;;;;;;20.21;nan;101109.13;5032883;28;20029;-60
2022/08/04 01:42:40;;;;;;;6.57;4.65;;;;;;;19.93;nan;101063.88;5048309;28;20488;-60
2022/08/04 01:45:08;;;;;;;10.10;4.70;;;;;;;20.13;nan;101109.66;5031840;28;20039;-60
2022/08/04 01:47:35;;;;;;;6.05;4.47;;;;;;;20.03;nan;101091.66;5032600;28;20424;-58
2022/08/04 01:50:12;;;;;;;6.80;4.45;;;;;;;19.79;nan;101062.09;5032880;28;20055;-60
2022/08/04 01:52:40;;;;;;;7.00;4.40;;;;;;;19.75;nan;101046.41;5031549;28;20180;-58
2022/08/04 01:55:10;;;;;;;5.65;4.40;;;;;;;19.96;nan;101090.38;5032751;28;20029;-60
2022/08/04 01:57:44;;;;;;;7.00;4.40;;;;;;;19.75;nan;101070.44;5030148;28;20112;-60
2022/08/04 02:00:11;;;;;;;8.25;3.80;;;;;;;19.73;nan;101062.50;5047688;28;20087;-59
2022/08/04 02:02:37;;;;;;;8.75;3.83;;;;;;;19.90;nan;101098.78;5048140;28;20029;-59
2022/08/04 02:05:03;;;;;;;5.28;4.07;;;;;;;19.91;nan;101098.69;5032582;28;20036;-59
2022/08/04 02:07:54;;;;;;;7.47;3.95;;;;;;;19.91;nan;101100.50;5032489;28;20045;-60
2022/08/04 02:10:28;;;;;;;6.57;4.78;;;;;;;19.94;nan;101100.28;5047989;28;20041;-60
2022/08/04 02:13:12;;;;;;;9.80;3.95;;;;;;;19.93;nan;101094.13;5032439;28;20117;-59
2022/08/04 02:15:53;;;;;;;4.13;3.53;;;;;;;19.92;nan;101089.72;5032287;28;20037;-59
2022/08/04 02:18:27;;;;;;;5.95;3.55;;;;;;;19.92;nan;101086.19;5032048;28;20041;-60
2022/08/04 02:21:02;;;;;;;8.93;4.10;;;;;;;19.92;nan;101086.19;5031373;28;20480;-61
2022/08/04 02:23:35;;;;;;;6.82;3.80;;;;;;;19.91;nan;101079.97;5031116;28;20026;-59
2022/08/04 02:26:04;;;;;;;5.35;3.85;;;;;;;19.87;nan;101081.16;5031022;28;20032;-60
2022/08/04 02:28:37;;;;;;;7.13;4.05;;;;;;;19.87;nan;101075.81;5031922;28;20037;-59
2022/08/04 02:31:28;;;;;;;7.72;4.53;;;;;;;19.87;nan;101075.81;5032355;28;20180;-60
2022/08/04 02:34:12;;;;;;;;;;;;;;;19.85;nan;101077.72;5026849;28;20041;-59
2022/08/04 02:36:39;;;;;;;5.30;4.00;;;;;;;19.84;nan;101070.69;5032218;28;20015;-59
2022/08/04 02:39:07;;;;;;;6.72;4.10;;;;;;;19.57;nan;101035.97;5036077;28;20041;-59
2022/08/04 02:41:34;;;;;;;5.85;4.07;;;;;;;19.78;nan;101064.88;5038823;28;20464;-60
2022/08/04 02:44:21;;;;;;;4.82;3.92;;;;;;;19.75;nan;101070.44;5038422;28;20044;-60
2022/08/04 02:46:47;;;;;;;8.00;4.82;;;;;;;19.44;nan;101020.91;5038419;28;20034;-60
2022/08/04 02:49:13;;;;;;;6.40;3.75;;;;;;;19.70;nan;101075.22;5037297;28;20499;-61
2022/08/04 02:51:44;;;;;;;7.07;4.40;;;;;;;19.47;nan;101029.53;5037221;28;20033;-61
2022/08/04 02:54:10;;;;;;;5.68;4.43;;;;;;;19.69;nan;101068.16;5037355;28;20059;-59
2022/08/04 02:56:37;;;;;;;5.72;4.40;;;;;;;19.70;nan;101085.91;5027537;28;20033;-60
2022/08/04 02:59:08;;;;;;;6.95;4.00;;;;;;;19.41;nan;101032.59;5018807;28;20022;-60
2022/08/04 03:01:34;;;;;;;5.25;4.18;;;;;;;19.64;nan;101071.97;5019070;28;20433;-60
2022/08/04 03:04:21;;;;;;;4.85;3.88;;;;;;;19.63;nan;101072.97;5017738;28;20033;-60
2022/08/04 03:06:46;;;;;;;5.85;3.80;;;;;;;19.63;nan;101080.97;5018716;28;20477;-60
2022/08/04 03:09:50;;;;;;;6.73;3.83;;;;;;;19.62;nan;101070.38;5018880;28;20089;-60
2022/08/04 03:12:38;;;;;;;5.30;3.70;;;;;;;19.59;nan;101076.78;5017615;28;20639;-60
2022/08/04 03:15:25;;;;;;;7.03;3.58;;;;;;;19.54;nan;101073.56;5033964;28;20037;-60
2022/08/04 03:17:53;;;;;;;6.20;3.83;;;;;;;19.27;nan;101037.97;5017379;28;20038;-60
2022/08/04 03:20:34;;;;;;;4.05;3.33;;;;;;;19.50;nan;101082.72;5018603;28;20037;-60
2022/08/04 03:23:23;;;;;;;4.47;3.35;;;;;;;19.49;nan;101064.16;5033781;28;20038;-58
2022/08/04 03:26:16;;;;;;;6.53;3.53;;;;;;;19.45;nan;101050.13;5018795;28;20045;-60
2022/08/04 03:28:57;;;;;;;5.50;3.92;;;;;;;19.45;nan;101059.97;5018860;28;20038;-60
2022/08/04 03:31:57;;;;;;;6.07;3.70;;;;;;;19.44;nan;101061.75;5018421;28;20132;-60
2022/08/04 03:34:31;;;;;;;5.32;3.40;;;;;;;19.42;nan;101053.00;5018407;28;20046;-60
2022/08/04 03:37:05;;;;;;;5.30;3.30;;;;;;;19.42;nan;101060.16;5018246;28;20117;-59
2022/08/04 03:39:49;;;;;;;6.18;3.28;;;;;;;19.42;nan;101052.16;5018370;28;20476;-58
2022/08/04 03:42:30;;;;;;;6.05;3.10;;;;;;;19.32;nan;101040.34;5017133;28;20087;-60
2022/08/04 03:45:17;;;;;;;7.95;3.00;;;;;;;19.43;nan;101064.56;5038152;28;20395;-60
2022/08/04 03:47:59;;;;;;;5.88;3.47;;;;;;;19.40;nan;101054.94;5038214;28;20079;-59
2022/08/04 03:50:45;;;;;;;5.63;3.42;;;;;;;18.97;nan;100992.78;5050492;28;20041;-60
2022/08/04 03:53:19;;;;;;;6.25;3.00;;;;;;;19.40;nan;101062.94;5034920;28;20048;-58
2022/08/04 03:55:56;;;;;;;5.20;3.08;;;;;;;19.39;nan;101066.56;5035014;28;20038;-60
2022/08/04 03:58:37;;;;;;;3.38;3.08;;;;;;;19.39;nan;101058.53;5035094;28;20038;-59
2022/08/04 04:01:34;;;;;;;3.92;2.72;;;;;;;19.37;nan;101047.09;5050311;28;20032;-59
2022/08/04 04:04:00;;;;;;;4.60;3.10;;;;;;;19.39;nan;101053.22;5050139;28;20057;-58
2022/08/04 04:06:31;;;;;;;4.67;3.13;;;;;;;19.37;nan;101049.75;5034789;28;20060;-59
2022/08/04 04:09:14;;;;;;;;;;;;;;;19.37;nan;101055.09;5035385;28;20295;-59
2022/08/04 04:12:17;;;;;;;5.10;2.42;;;;;;;19.35;nan;101043.66;5034842;28;19967;-60
2022/08/04 04:14:59;;;;;;;3.97;2.83;;;;;;;19.30;nan;101044.91;5033658;28;20112;-58
2022/08/04 04:17:51;;;;;;;5.45;2.88;;;;;;;19.29;nan;101053.88;5034729;28;20029;-59
2022/08/04 04:20:35;;;;;;;3.92;2.72;;;;;;;19.26;nan;101043.41;5033326;28;20030;-59
2022/08/04 04:23:21;;;;;;;5.53;3.35;;;;;;;19.03;nan;101011.03;5034429;28;20049;-58
2022/08/04 04:25:58;;;;;;;3.97;3.03;;;;;;;19.26;nan;101054.09;5034471;28;20037;-59
2022/08/04 04:29:05;;;;;;;8.40;3.50;;;;;;;19.29;nan;101053.88;5034472;28;20045;-60
2022/08/04 04:31:41;;;;;;;8.20;3.88;;;;;;;19.29;nan;101057.41;4992453;28;20054;-58
2022/08/04 04:34:30;;;;;;;7.18;3.75;;;;;;;19.31;nan;101063.50;4992599;28;20034;-60
2022/08/04 04:37:29;;;;;;;5.68;3.60;;;;;;;19.34;nan;101059.78;5022319;28;20045;-59
2022/08/04 04:40:00;;;;;;;5.13;3.50;;;;;;;19.40;nan;101064.75;5034249;28;20049;-60
2022/08/04 04:42:47;;;;;;;5.90;3.10;;;;;;;19.43;nan;101051.19;5034155;28;20076;-59
2022/08/04 04:45:29;;;;;;;9.35;3.60;;;;;;;19.45;nan;101055.47;5034048;28;20079;-59
2022/08/04 04:48:18;;;;;;;3.58;3.00;;;;;;;19.49;nan;101053.47;5032709;28;20040;-60
2022/08/04 04:50:47;;;;;;;7.38;3.08;;;;;;;19.51;nan;101063.09;5032900;28;20064;-59
2022/08/04 04:53:34;;;;;;;7.57;3.28;;;;;;;19.34;nan;101025.06;5033953;28;20285;-59
2022/08/04 04:56:23;;;;;;;8.30;3.22;;;;;;;19.61;nan;101060.69;5033648;28;20025;-59
2022/08/04 04:58:50;;;;;;;4.88;3.17;;;;;;;19.49;nan;101029.44;5033508;28;20033;-60
2022/08/04 05:01:27;;;;;;;5.70;3.38;;;;;;;19.39;nan;101015.84;5032626;28;20068;-59
2022/08/04 05:04:06;;;;;;;7.93;3.30;;;;;;;19.68;nan;101067.31;5032577;28;20056;-59
2022/08/04 05:06:43;;;;;;;6.45;3.60;;;;;;;19.71;nan;101066.25;5033947;28;20124;-58
2022/08/04 05:09:21;;;;;;;5.30;3.42;;;;;;;19.73;nan;101070.50;5033893;28;20116;-60
2022/08/04 05:12:09;;;;;;;5.43;3.38;;;;;;;19.55;nan;101039.72;5033491;28;20033;-60
2022/08/04 05:14:41;;;;;;;7.93;3.00;;;;;;;19.77;nan;101077.38;5033356;28;20069;-58
2022/08/04 05:17:16;;;;;;;5.90;3.17;;;;;;;19.60;nan;101046.47;5032259;28;20033;-59
2022/08/04 05:19:56;;;;;;;6.53;3.13;;;;;;;19.83;nan;101078.78;5033447;28;20025;-59
2022/08/04 05:22:27;;;;;;;4.90;3.20;;;;;;;19.76;nan;101058.81;5033451;28;20088;-59
2022/08/04 05:25:17;;;;;;;5.65;3.17;;;;;;;19.80;nan;101066.50;5032243;28;20048;-58
2022/08/04 05:27:59;;;;;;;5.35;2.70;;;;;;;19.81;nan;101073.56;5032104;28;20065;-59
2022/08/04 05:30:26;;;;;;;6.70;3.45;;;;;;;19.83;nan;101074.31;5031902;28;20065;-59
2022/08/04 05:33:03;;;;;;;5.45;3.08;;;;;;;19.84;nan;101072.50;5031834;28;20072;-59
2022/08/04 05:35:41;;;;;;;6.72;3.38;;;;;;;19.81;nan;101081.56;5032891;28;20033;-59
2022/08/04 05:38:07;;;;;;;5.07;3.40;;;;;;;19.83;nan;101086.78;5031921;28;20100;-59
2022/08/04 05:40:32;;;;;;;5.50;2.67;;;;;;;19.82;nan;101090.44;5031897;28;20041;-60
2022/08/04 05:42:58;;;;;;;8.20;3.50;;;;;;;19.83;nan;101087.66;5025728;28;20552;-58
2022/08/04 05:45:23;;;;;;;5.85;2.92;;;;;;;19.61;nan;101056.16;5012019;28;20420;-59
2022/08/04 05:47:50;;;;;;;6.00;3.47;;;;;;;19.81;nan;101084.25;5011968;28;20149;-59
2022/08/04 05:50:16;;;;;;;6.78;3.00;;;;;;;19.52;nan;101030.09;5023353;28;20059;-60
2022/08/04 05:52:42;;;;;;;7.63;2.92;;;;;;;19.79;nan;101075.44;5031441;28;20464;-60
2022/08/04 05:55:08;;;;;;;5.05;3.63;;;;;;;19.79;nan;101075.44;5048120;28;20466;-59
2022/08/04 05:57:34;;;;;;;6.50;3.38;;;;;;;19.75;nan;101071.28;5048162;28;20167;-60
2022/08/04 06:00:03;;;;;;;6.85;3.00;;;;;;;19.78;nan;101070.22;5032712;28;20112;-59
2022/08/04 06:02:29;;;;;;;7.97;3.35;;;;;;;19.73;nan;101061.69;5032405;28;20029;-60
2022/08/04 06:04:55;;;;;;;6.45;3.63;;;;;;;19.74;nan;101072.25;5048151;28;20049;-60
2022/08/04 06:07:20;;;;;;;6.60;3.22;;;;;;;19.88;nan;101088.19;5031512;28;20447;-59
2022/08/04 06:09:45;;;;;;;7.97;3.72;;;;;;;19.90;nan;101078.28;5032509;28;20037;-59
2022/08/04 06:12:15;;;;;;;9.80;3.42;;;;;;;19.92;nan;101079.03;5032268;28;20072;-59
2022/08/04 06:14:44;;;;;;;6.53;3.30;;;;;;;19.84;nan;101054.66;5031102;28;20073;-59
2022/08/04 06:17:15;;;;;;;5.03;3.08;;;;;;;20.03;nan;101086.31;5047870;28;20104;-59
2022/08/04 06:19:40;;;;;;;4.77;3.37;;;;;;;19.79;nan;101040.72;5031323;28;20362;-60
2022/08/04 06:22:08;;;;;;;7.63;3.35;;;;;;;20.03;nan;101073.81;5047833;28;20044;-60
2022/08/04 06:24:35;;;;;;;8.82;3.20;;;;;;;20.22;nan;101100.16;5031130;28;20030;-60
2022/08/04 06:27:02;;;;;;;5.90;2.85;;;;;;;20.33;nan;101097.63;5047966;28;20029;-58
2022/08/04 06:29:34;;;;;;;7.05;2.65;;;;;;;20.33;nan;101064.69;5031028;28;20029;-59
2022/08/04 06:32:02;;;;;;;6.85;3.15;;;;;;;20.53;nan;101077.53;5046576;28;20088;-60
2022/08/04 06:34:29;;;;;;;7.40;2.97;;;;;;;20.58;nan;101070.03;5032216;28;20072;-60
2022/08/04 06:36:55;;;;;;;6.22;3.20;;;;;;;20.62;nan;101045.66;5030973;28;20488;-60
2022/08/04 06:39:23;;;;;;;5.57;2.83;;;;;;;20.82;nan;101054.94;5032277;28;20065;-60
2022/08/04 06:41:50;;;;;;;4.78;2.90;;;;;;;21.21;nan;101083.34;5030887;28;20427;-60
2022/08/04 06:44:16;;;;;;;5.05;2.60;;;;;;;21.06;nan;101055.00;5047272;28;20095;-59
2022/08/04 06:46:42;;;;;;;5.65;2.92;;;;;;;21.21;nan;101080.69;5031283;28;20292;-60
2022/08/04 06:49:08;;;;;;;5.20;2.65;;;;;;;21.50;nan;101114.22;5030873;28;20450;-60
2022/08/04 06:51:35;;;;;;;4.90;2.47;;;;;;;21.37;nan;101058.97;5030881;28;20029;-60
2022/08/04 06:54:01;;;;;;;4.97;2.10;;;;;;;21.78;nan;101121.91;5030876;28;20042;-61
2022/08/04 06:56:29;;;;;;;6.18;2.60;;;;;;;21.55;nan;101079.03;5031974;28;20041;-59
2022/08/04 06:58:54;;;;;;;7.47;2.42;;;;;;;21.85;nan;101130.38;5047146;28;20029;-59
2022/08/04 07:01:20;;;;;;;8.07;2.38;;;;;;;21.71;nan;101103.75;5031971;28;20029;-59
2022/08/04 07:03:46;;;;;;;8.13;2.75;;;;;;;21.68;nan;101095.94;5031995;28;20026;-61
2022/08/04 07:06:11;;;;;;;2.90;1.70;;;;;;;22.03;nan;101131.72;5031586;28;20030;-60
2022/08/04 07:08:38;;;;;;;5.15;2.10;;;;;;;21.83;nan;101084.06;5030205;28;20447;-60
2022/08/04 07:11:04;;;;;;;5.60;2.13;;;;;;;22.02;nan;101102.31;5045826;28;20411;-59
2022/08/04 07:13:30;;;;;;;3.47;1.98;;;;;;;22.30;nan;101140.31;5046002;28;20033;-59
2022/08/04 07:15:56;;;;;;;5.82;2.20;;;;;;;22.44;nan;101152.69;5031076;28;20115;-60
2022/08/04 07:18:22;;;;;;;4.55;1.90;;;;;;;22.19;nan;101117.97;5028684;28;20498;-60
2022/08/04 07:20:48;;;;;;;8.40;2.47;;;;;;;22.14;nan;101131.75;5046666;28;20041;-59
2022/08/04 07:23:20;;;;;;;3.78;1.80;;;;;;;22.44;nan;101184.88;5046973;28;20411;-59
2022/08/04 07:25:51;;;;;;;4.35;1.90;;;;;;;22.32;nan;101133.03;5032561;28;20034;-60
2022/08/04 07:28:16;;;;;;;5.05;2.30;;;;;;;22.47;nan;101157.81;5035368;28;20083;-59
2022/08/04 07:30:43;;;;;;;6.28;2.33;;;;;;;22.63;nan;101192.34;5035563;28;20034;-59
2022/08/04 07:33:09;;;;;;;5.65;1.92;;;;;;;22.67;nan;101193.88;5034309;28;20042;-56
2022/08/04 07:35:36;;;;;;;6.43;2.15;;;;;;;22.47;nan;101152.47;5035250;28;20095;-61
2022/08/04 07:38:02;;;;;;;5.38;2.08;;;;;;;22.88;nan;101195.72;5033937;28;20453;-60
2022/08/04 07:40:28;;;;;;;4.28;2.28;;;;;;;23.08;nan;101212.13;5033574;28;20083;-59
2022/08/04 07:42:54;;;;;;;5.03;1.85;;;;;;;23.31;nan;101203.09;5048181;28;20030;-59
2022/08/04 07:45:20;;;;;;;8.43;2.67;;;;;;;23.69;nan;101210.81;5033695;28;20064;-60
2022/08/04 07:47:45;;;;;;;3.10;1.73;;;;;;;23.57;nan;101218.03;5033840;28;20124;-60
2022/08/04 07:50:13;;;;;;;3.35;1.67;;;;;;;23.44;nan;101179.66;5034711;28;20038;-60
2022/08/04 07:52:39;;;;;;;4.53;1.80;;;;;;;23.98;nan;101220.91;5033814;28;20455;-61
2022/08/04 07:55:05;;;;;;;5.85;1.52;;;;;;;24.33;nan;101230.59;5016996;28;20128;-60
2022/08/04 07:57:30;;;;;;;5.22;1.60;;;;;;;24.19;nan;101198.59;5033733;28;20065;-60
2022/08/04 07:59:55;;;;;;;3.83;1.73;;;;;;;24.86;nan;101210.78;5033763;28;20038;-61
2022/08/04 08:02:21;;;;;;;4.45;1.92;;;;;;;25.57;nan;101244.91;5033515;28;20059;-60
2022/08/04 08:04:47;;;;;;;7.72;2.75;;;;;;;25.81;nan;101259.88;5033501;28;20128;-61
2022/08/04 08:07:12;;;;;;;3.95;1.20;;;;;;;26.01;nan;101210.41;5034643;28;20072;-61
2022/08/04 08:09:38;;;;;;;4.43;1.50;;;;;;;26.47;nan;101245.72;5034411;28;20030;-62
2022/08/04 08:12:03;;;;;;;3.28;1.73;;;;;;;26.77;nan;101212.28;5034339;28;20064;-62
2022/08/04 08:14:29;;;;;;;4.18;1.92;;;;;;;27.10;nan;101265.00;5034465;28;20029;-60
2022/08/04 08:16:55;;;;;;;3.95;1.83;;;;;;;27.24;nan;101272.66;5034521;28;20041;-61
2022/08/04 08:19:20;;;;;;;5.25;1.63;;;;;;;27.26;nan;101240.94;5034140;28;20033;-63
2022/08/04 08:21:48;;;;;;;3.75;1.10;;;;;;;27.56;nan;101283.97;5034301;28;20116;-62
2022/08/04 08:24:13;;;;;;;4.15;2.08;;;;;;;27.44;nan;101278.91;5032871;28;20033;-62
2022/08/04 08:26:40;;;;;;;3.53;1.95;;;;;;;27.15;nan;101285.19;5033184;28;20037;-61
2022/08/04 08:29:06;;;;;;;4.85;1.40;;;;;;;27.48;nan;101285.69;5034374;28;20088;-61
2022/08/04 08:31:31;;;;;;;3.97;1.73;;;;;;;27.42;nan;101276.34;5032985;28;20041;-62
2022/08/04 08:33:58;;;;;;;3.22;1.58;;;;;;;27.12;nan;101268.41;5033972;28;20463;-61
2022/08/04 08:36:34;;;;;;;5.38;1.55;;;;;;;27.31;nan;101282.75;5033879;28;20136;-60
2022/08/04 08:39:10;;;;;;;4.70;1.52;;;;;;;27.54;nan;101279.69;5032783;28;20518;-62
2022/08/04 08:41:57;;;;;;;4.30;1.63;;;;;;;27.68;nan;101263.84;5032985;28;20045;-60
2022/08/04 08:44:38;;;;;;;6.07;2.08;;;;;;;27.95;nan;101290.06;4998717;28;20128;-61
2022/08/04 08:47:31;;;;;;;5.80;1.73;;;;;;;28.29;nan;101284.88;5013978;28;20060;-63
2022/08/04 08:50:30;;;;;;;4.05;1.25;;;;;;;28.55;nan;101290.41;5014224;28;20029;-63
2022/08/04 08:53:04;;;;;;;2.92;1.20;;;;;;;29.02;nan;101308.97;5013910;28;20042;-60
2022/08/04 08:55:48;;;;;;;3.58;1.40;;;;;;;29.48;nan;101299.66;5012510;28;20129;-62
2022/08/04 08:58:37;;;;;;;3.22;2.15;;;;;;;29.56;nan;101313.28;5014098;28;20481;-62
2022/08/04 09:01:49;;;;;;;4.43;1.43;;;;;;;29.34;nan;101310.25;5012559;28;20120;-61
2022/08/04 09:04:44;;;;;;;5.18;1.60;;;;;;;28.89;nan;101304.97;5013257;28;20049;-63
2022/08/04 09:07:25;;;;;;;3.55;1.50;;;;;;;28.33;nan;101300.69;5013653;28;20543;-62
2022/08/04 09:10:02;;;;;;;3.85;1.40;;;;;;;28.17;nan;101300.47;5013659;28;20038;-61
2022/08/04 09:12:33;;;;;;;4.05;1.45;;;;;;;28.57;nan;101299.22;5013322;28;20572;-61
2022/08/04 09:15:06;;;;;;;;;;;;;;;29.10;nan;101316.31;5012785;28;20065;-61
2022/08/04 09:17:41;;;;;;;2.67;1.52;;;;;;;28.78;nan;101280.84;5028732;28;19951;-60
2022/08/04 09:20:26;;;;;;;3.75;1.40;;;;;;;28.32;nan;101303.53;5013527;28;20077;-61
2022/08/04 09:23:05;;;;;;;2.85;1.40;;;;;;;27.69;nan;101316.09;5013206;28;20536;-62
2022/08/04 09:25:39;;;;;;;2.40;1.30;;;;;;;27.13;nan;101316.06;5011330;28;20084;-60
2022/08/04 09:28:12;;;;;;;3.67;1.35;;;;;;;26.93;nan;101303.56;5011871;28;20030;-62
2022/08/04 09:30:44;;;;;;;4.75;1.70;;;;;;;26.48;nan;101290.59;5010813;28;20069;-62
2022/08/04 09:33:19;;;;;;;3.33;1.45;;;;;;;26.00;nan;101273.44;5011975;28;20046;-62
2022/08/04 09:35:45;;;;;;;4.32;1.27;;;;;;;25.93;nan;101315.44;5012069;28;20113;-61
2022/08/04 09:38:25;;;;;;;2.73;1.40;;;;;;;25.73;nan;101325.31;5012892;28;20141;-60
2022/08/04 09:40:58;;;;;;;3.25;1.55;;;;;;;25.55;nan;101321.50;5011993;28;20272;-61
2022/08/04 09:43:48;;;;;;;2.03;1.50;;;;;;;25.44;nan;101317.03;5021150;28;20033;-62
2022/08/04 09:46:18;;;;;;;2.40;1.40;;;;;;;25.37;nan;101326.63;5032782;28;20076;-61
2022/08/04 09:48:57;;;;;;;2.47;1.25;;;;;;;25.36;nan;101324.94;5030643;28;20392;-62
2022/08/04 09:51:40;;;;;;;3.83;1.55;;;;;;;24.87;nan;101273.56;5031528;28;20040;-61
2022/08/04 09:54:15;;;;;;;2.92;1.55;;;;;;;24.89;nan;101291.31;5031456;28;20041;-62
2022/08/04 09:57:18;;;;;;;2.60;1.38;;;;;;;25.16;nan;101326.63;5031459;28;20061;-62
2022/08/04 10:00:08;;;;;;;3.60;1.30;;;;;;;25.62;nan;101339.75;5030260;28;20053;-61
2022/08/04 10:02:37;;;;;;;2.28;1.27;;;;;;;25.65;nan;101301.72;5030695;28;20155;-61
2022/08/04 10:05:07;;;;;;;2.58;1.40;;;;;;;25.71;nan;101336.22;5013872;28;20492;-61
2022/08/04 10:08:01;;;;;;;2.78;1.20;;;;;;;25.66;nan;101367.25;5030407;28;20037;-61
2022/08/04 10:10:36;;;;;;;3.90;1.70;;;;;;;25.55;nan;101362.81;5031146;28;20040;-63
2022/08/04 10:13:40;;;;;;;2.17;1.10;;;;;;;25.68;nan;101349.13;5014390;28;20029;-62
2022/08/04 10:16:33;;;;;;;6.45;1.50;;;;;;;25.97;nan;101346.56;5032026;28;20041;-62
2022/08/04 10:19:23;;;;;;;4.32;1.70;;;;;;;26.01;nan;101313.75;5031811;28;20033;-64
2022/08/04 10:22:10;;;;;;;3.45;1.30;;;;;;;26.61;nan;101365.94;5031143;28;20551;-61
2022/08/04 10:24:53;;;;;;;5.47;1.67;;;;;;;26.57;nan;101324.84;5030839;28;20036;-62
2022/08/04 10:27:21;;;;;;;2.97;1.20;;;;;;;26.66;nan;101374.47;5032246;28;20036;-62
2022/08/04 10:29:46;;;;;;;2.97;1.50;;;;;;;26.35;nan;101371.00;5031857;28;20065;-61
2022/08/04 10:32:23;;;;;;;3.33;1.63;;;;;;;25.99;nan;101371.53;5030929;28;20104;-60
2022/08/04 10:35:10;;;;;;;2.08;1.40;;;;;;;25.94;nan;101376.50;5031092;28;20108;-62
2022/08/04 10:37:45;;;;;;;2.00;1.20;;;;;;;25.91;nan;101361.44;5031087;28;20030;-62
2022/08/04 10:40:44;;;;;;;3.70;1.40;;;;;;;26.00;nan;101340.88;5032042;28;20419;-59
2022/08/04 10:43:37;;;;;;;3.22;1.42;;;;;;;27.24;nan;101337.50;5031291;28;20025;-61
2022/08/04 10:46:13;;;;;;;3.42;1.38;;;;;;;28.54;nan;101384.34;5030691;28;20041;-61
2022/08/04 10:48:58;;;;;;;3.55;1.45;;;;;;;28.94;nan;101395.63;5030747;28;20044;-62
2022/08/04 10:51:49;;;;;;;3.38;1.60;;;;;;;28.65;nan;101381.44;5043846;28;20065;-62
2022/08/04 10:54:21;;;;;;;3.42;1.45;;;;;;;28.75;nan;101392.22;5010883;28;20050;-62
2022/08/04 10:56:52;;;;;;;2.83;1.20;;;;;;;28.76;nan;101326.19;5030797;28;20026;-60
2022/08/04 10:59:28;;;;;;;2.00;1.30;;;;;;;29.54;nan;101374.97;5032395;28;20131;-63
2022/08/04 11:01:59;;;;;;;2.05;1.27;;;;;;;29.57;nan;101333.97;5035045;28;20124;-61
2022/08/04 11:04:44;;;;;;;1.73;1.05;;;;;;;30.57;nan;101336.81;5034818;28;20029;-61
2022/08/04 11:07:09;;;;;;;4.10;1.45;;;;;;;31.43;nan;101396.22;5034325;28;20427;-60
2022/08/04 11:09:36;;;;;;;1.98;1.02;;;;;;;31.70;nan;101355.03;5034883;28;20038;-62
2022/08/04 11:12:18;;;;;;;2.10;1.38;;;;;;;31.79;nan;101350.44;5034690;28;20163;-62
2022/08/04 11:15:06;;;;;;;4.80;1.23;;;;;;;32.68;nan;101389.91;5034500;28;20033;-62
2022/08/04 11:17:35;;;;;;;2.13;0.90;;;;;;;31.99;nan;101313.59;5034302;28;20032;-60
2022/08/04 11:20:15;;;;;;;5.85;1.00;;;;;;;32.59;nan;101395.59;5034619;28;20557;-61
2022/08/04 11:22:49;;;;;;;2.38;1.08;;;;;;;32.67;nan;101398.25;5035529;28;20191;-61
2022/08/04 11:25:25;;;;;;;3.75;1.30;;;;;;;32.82;nan;101383.69;5034410;28;20115;-62
2022/08/04 11:28:18;;;;;;;4.10;1.33;;;;;;;33.43;nan;101400.94;5044031;28;20060;-55
2022/08/04 11:30:52;;;;;;;1.40;0.70;;;;;;;33.90;nan;101409.72;5033676;28;20070;-62
2022/08/04 11:33:29;;;;;;;3.55;1.08;;;;;;;33.69;nan;101371.38;5035338;28;20505;-62
2022/08/04 11:36:07;;;;;;;3.78;1.00;;;;;;;34.06;nan;101407.84;5034621;28;20494;-61
2022/08/04 11:38:45;;;;;;;2.17;0.90;;;;;;;33.18;nan;101323.09;5034309;28;20033;-60
2022/08/04 11:41:18;;;;;;;1.95;1.00;;;;;;;33.16;nan;101394.19;5033436;28;20040;-61
2022/08/04 11:43:59;;;;;;;1.33;0.98;;;;;;;33.12;nan;101379.25;5032856;28;20143;-62
2022/08/04 11:46:35;;;;;;;3.60;1.02;;;;;;;33.01;nan;101367.88;5033161;28;20033;-61
2022/08/04 11:49:15;;;;;;;3.38;0.95;;;;;;;33.12;nan;101395.59;5033868;28;20033;-63
2022/08/04 11:51:42;;;;;;;1.58;1.02;;;;;;;33.80;nan;101405.59;5032651;28;20040;-63
2022/08/04 11:54:08;;;;;;;2.45;1.20;;;;;;;33.50;nan;101417.44;5016366;28;20029;-61
2022/08/04 11:56:34;;;;;;;3.85;1.05;;;;;;;33.57;nan;101416.50;5049921;28;20487;-60
2022/08/04 11:59:00;;;;;;;1.23;0.93;;;;;;;33.45;nan;101414.44;5034998;28;20037;-61
2022/08/04 12:01:34;;;;;;;1.25;1.05;;;;;;;33.21;nan;101416.34;5050380;28;20456;-63
2022/08/04 12:04:18;;;;;;;2.38;1.17;;;;;;;33.61;nan;101409.69;5034791;28;20488;-63
2022/08/04 12:06:52;;;;;;;2.08;0.82;;;;;;;33.72;nan;101411.97;5034656;28;20488;-63
2022/08/04 12:09:28;;;;;;;2.80;1.02;;;;;;;34.12;nan;101408.00;5034668;28;20025;-62
2022/08/04 12:11:58;;;;;;;2.03;1.00;;;;;;;34.04;nan;101394.38;5049042;28;20508;-62
2022/08/04 12:14:39;;;;;;;1.13;0.90;;;;;;;34.14;nan;101405.03;5034293;28;20032;-64
2022/08/04 12:17:05;;;;;;;2.40;1.08;;;;;;;33.96;nan;101378.06;5049567;28;20032;-62
2022/08/04 12:19:43;;;;;;;3.35;1.23;;;;;;;33.25;nan;101376.72;5049378;28;20041;-62
2022/08/04 12:22:15;;;;;;;1.92;1.02;;;;;;;32.97;nan;101366.53;5049578;28;20369;-62
2022/08/04 12:24:44;;;;;;;2.78;1.10;;;;;;;33.04;nan;101422.06;5033237;28;20041;-61